createdAt,value
2022-08-03T00:01:36.927Z,2.60
2022-08-03T00:04:39.331Z,2.90
2022-08-03T00:07:41.484Z,3.00
2022-08-03T00:10:44.003Z,3.40
2022-08-03T00:13:46.170Z,2.70
2022-08-03T00:16:48.564Z,3.10
2022-08-03T00:19:50.738Z,3.58
2022-08-03T00:22:53.147Z,3.37
2022-08-03T00:25:55.482Z,3.25
2022-08-03T00:28:57.917Z,2.50
2022-08-03T00:32:00.487Z,3.30
2022-08-03T00:35:08.048Z,3.22
2022-08-03T00:38:10.932Z,2.78
2022-08-03T00:41:13.306Z,3.10
2022-08-03T00:44:17.861Z,3.30
2022-08-03T00:47:20.337Z,3.03
2022-08-03T00:50:25.219Z,3.10
2022-08-03T00:53:28.459Z,3.58
2022-08-03T00:56:30.618Z,2.75
2022-08-03T00:59:33.236Z,2.80
2022-08-03T01:02:35.929Z,2.85
2022-08-03T01:05:56.002Z,2.72
2022-08-03T01:09:27.944Z,3.17
2022-08-03T01:12:36.190Z,3.75
2022-08-03T01:16:00.214Z,3.15
2022-08-03T01:19:13.259Z,3.33
2022-08-03T01:22:15.404Z,4.20
2022-08-03T01:25:54.318Z,4.43
2022-08-03T01:29:39.300Z,4.20
2022-08-03T01:32:59.108Z,3.42
2022-08-03T01:36:06.842Z,3.45
2022-08-03T01:39:11.438Z,3.58
2022-08-03T01:42:14.984Z,3.75
2022-08-03T01:45:18.816Z,3.80
2022-08-03T01:51:23.547Z,3.80
2022-08-03T01:54:27.657Z,4.53
2022-08-03T01:57:30.791Z,3.53
2022-08-03T02:00:34.586Z,3.60
2022-08-03T02:03:59.857Z,3.92
2022-08-03T02:07:03.446Z,4.10
2022-08-03T02:10:07.561Z,3.22
2022-08-03T02:13:10.691Z,3.72
2022-08-03T02:19:18.050Z,4.10
2022-08-03T02:22:22.845Z,4.60
2022-08-03T02:25:25.015Z,4.20
2022-08-03T02:28:35.228Z,3.67
2022-08-03T02:31:38.337Z,4.28
2022-08-03T02:37:50.552Z,3.85
2022-08-03T02:40:55.399Z,4.18
2022-08-03T02:44:05.946Z,4.55
2022-08-03T02:47:13.088Z,3.92
2022-08-03T02:50:16.809Z,4.55
2022-08-03T02:53:19.892Z,4.50
2022-08-03T02:56:25.535Z,4.00
2022-08-03T02:59:31.180Z,4.20
2022-08-03T03:02:34.909Z,4.35
2022-08-03T03:05:52.192Z,4.22
2022-08-03T03:09:00.137Z,5.30
2022-08-03T03:12:03.020Z,4.30
2022-08-03T03:15:06.630Z,4.70
2022-08-03T03:18:10.274Z,4.85
2022-08-03T03:24:16.693Z,4.62
2022-08-03T03:30:21.234Z,4.93
2022-08-03T03:33:23.550Z,4.70
2022-08-03T03:36:26.025Z,4.87
2022-08-03T03:39:28.213Z,5.15
2022-08-03T03:42:30.951Z,4.97
2022-08-03T03:45:34.865Z,4.33
2022-08-03T03:48:37.374Z,4.90
2022-08-03T03:51:39.514Z,5.00
2022-08-03T03:54:43.496Z,4.30
2022-08-03T03:57:45.817Z,4.70
2022-08-03T04:00:48.335Z,4.65
2022-08-03T04:03:50.926Z,4.93
2022-08-03T04:07:11.849Z,4.97
2022-08-03T04:10:38.878Z,5.05
2022-08-03T04:13:55.422Z,5.47
2022-08-03T04:17:07.236Z,5.03
2022-08-03T04:20:11.024Z,4.47
2022-08-03T04:23:16.585Z,5.43
2022-08-03T04:26:24.523Z,4.82
2022-08-03T04:29:29.554Z,4.75
2022-08-03T04:32:31.990Z,5.43
2022-08-03T04:36:01.105Z,4.82
2022-08-03T04:39:10.680Z,3.90
2022-08-03T04:42:14.723Z,4.93
2022-08-03T04:45:19.402Z,5.87
2022-08-03T04:48:22.598Z,5.20
2022-08-03T04:51:25.991Z,6.10
2022-08-03T04:54:28.435Z,5.03
2022-08-03T04:57:30.622Z,6.07
2022-08-03T05:00:33.331Z,5.37
2022-08-03T05:03:35.469Z,4.87
2022-08-03T05:06:45.212Z,5.68
2022-08-03T05:09:57.497Z,5.60
2022-08-03T05:13:04.612Z,4.87
2022-08-03T05:16:06.927Z,5.83
2022-08-03T05:19:09.382Z,5.30
2022-08-03T05:22:11.505Z,5.10
2022-08-03T05:25:17.251Z,5.37
2022-08-03T05:28:22.307Z,5.30
2022-08-03T05:31:24.762Z,5.70
2022-08-03T05:34:27.090Z,5.12
2022-08-03T05:37:29.516Z,4.85
2022-08-03T05:40:31.870Z,6.07
2022-08-03T05:43:34.354Z,5.05
2022-08-03T05:46:39.099Z,4.95
2022-08-03T05:49:41.852Z,6.15
2022-08-03T05:52:44.484Z,5.20
2022-08-03T05:58:54.897Z,4.93
2022-08-03T06:01:57.424Z,5.80
2022-08-03T06:04:59.893Z,3.75
2022-08-03T06:08:03.348Z,5.15
2022-08-03T06:11:05.819Z,4.43
2022-08-03T06:14:08.024Z,4.40
2022-08-03T06:20:17.736Z,6.22
2022-08-03T06:23:20.498Z,4.37
2022-08-03T06:29:29.019Z,4.78
2022-08-03T06:32:31.127Z,4.87
2022-08-03T06:35:33.689Z,4.20
2022-08-03T06:38:38.154Z,4.75
2022-08-03T06:41:44.873Z,4.25
2022-08-03T06:44:47.199Z,4.65
2022-08-03T06:48:10.195Z,5.15
2022-08-03T06:51:12.711Z,5.28
2022-08-03T06:54:15.237Z,4.45
2022-08-03T06:57:18.742Z,5.47
2022-08-03T07:00:21.473Z,4.87
2022-08-03T07:03:23.650Z,5.85
2022-08-03T07:09:28.457Z,5.30
2022-08-03T07:12:31.494Z,5.12
2022-08-03T07:15:54.287Z,4.57
2022-08-03T07:18:59.061Z,5.37
2022-08-03T07:22:04.485Z,5.05
2022-08-03T07:25:07.317Z,5.25
2022-08-03T07:28:09.468Z,5.72
2022-08-03T07:31:14.206Z,5.18
2022-08-03T07:34:16.352Z,5.18
2022-08-03T07:37:18.823Z,5.43
2022-08-03T07:40:21.043Z,5.95
2022-08-03T07:43:24.268Z,6.00
2022-08-03T07:46:26.804Z,5.87
2022-08-03T07:52:49.767Z,6.32
2022-08-03T07:55:52.562Z,5.47
2022-08-03T07:58:55.522Z,6.33
2022-08-03T08:01:58.154Z,6.30
2022-08-03T08:05:05.268Z,5.68
2022-08-03T08:08:08.368Z,6.22
2022-08-03T08:11:10.808Z,6.43
2022-08-03T08:14:12.985Z,5.90
2022-08-03T08:17:15.420Z,6.05
2022-08-03T08:20:28.034Z,5.47
2022-08-03T08:23:41.764Z,5.87
2022-08-03T08:26:45.804Z,5.53
2022-08-03T08:29:54.325Z,4.97
2022-08-03T08:32:58.111Z,5.82
2022-08-03T08:39:02.838Z,6.00
2022-08-03T08:42:05.304Z,6.65
2022-08-03T08:45:09.248Z,5.27
2022-08-03T08:48:13.832Z,5.57
2022-08-03T08:51:19.482Z,6.07
2022-08-03T08:54:23.280Z,5.85
2022-08-03T08:57:43.142Z,5.65
2022-08-03T09:00:46.090Z,5.90
2022-08-03T09:03:48.546Z,5.87
2022-08-03T09:07:17.640Z,5.97
2022-08-03T09:10:19.758Z,5.57
2022-08-03T09:13:22.625Z,5.72
2022-08-03T09:16:24.858Z,5.50
2022-08-03T09:19:27.826Z,5.37
2022-08-03T09:22:33.322Z,5.12
2022-08-03T09:25:41.511Z,5.05
2022-08-03T09:28:59.511Z,4.72
2022-08-03T09:32:04.736Z,4.45
2022-08-03T09:35:09.533Z,4.57
2022-08-03T09:38:26.250Z,4.30
2022-08-03T09:41:28.669Z,4.25
2022-08-03T09:44:38.794Z,3.45
2022-08-03T09:47:44.926Z,3.60
2022-08-03T09:50:58.762Z,4.43
2022-08-03T09:54:18.852Z,3.92
2022-08-03T09:57:25.371Z,4.25
2022-08-03T10:00:27.568Z,4.68
2022-08-03T10:03:36.066Z,4.68
2022-08-03T10:07:11.055Z,4.45
2022-08-03T10:10:29.896Z,4.57
2022-08-03T10:13:34.507Z,4.55
2022-08-03T10:16:39.135Z,5.03
2022-08-03T10:19:41.620Z,4.60
2022-08-03T10:22:44.131Z,4.53
2022-08-03T10:25:49.392Z,4.75
2022-08-03T10:28:54.361Z,4.15
2022-08-03T10:31:58.878Z,4.60
2022-08-03T10:35:20.501Z,3.83
2022-08-03T10:38:32.693Z,4.15
2022-08-03T10:41:39.835Z,4.60
2022-08-03T10:44:42.680Z,4.57
2022-08-03T10:47:47.498Z,4.68
2022-08-03T10:50:50.658Z,3.92
2022-08-03T10:53:54.900Z,4.15
2022-08-03T10:57:16.841Z,4.95
2022-08-03T11:00:25.126Z,4.62
2022-08-03T11:03:27.414Z,3.83
2022-08-03T11:06:37.144Z,4.43
2022-08-03T11:09:44.096Z,4.37
2022-08-03T11:12:47.042Z,4.28
2022-08-03T11:15:52.240Z,4.40
2022-08-03T11:19:09.018Z,3.95
2022-08-03T11:22:11.630Z,4.20
2022-08-03T11:25:53.431Z,3.97
2022-08-03T11:28:39.962Z,3.80
2022-08-03T11:31:50.933Z,4.25
2022-08-03T11:35:09.491Z,4.10
2022-08-03T11:38:12.061Z,4.25
2022-08-03T11:41:43.369Z,4.25
2022-08-03T11:44:50.898Z,4.37
2022-08-03T11:47:56.185Z,4.75
2022-08-03T11:50:58.899Z,3.62
2022-08-03T11:54:06.088Z,4.35
2022-08-03T11:57:08.586Z,4.30
2022-08-03T12:00:32.314Z,3.80
2022-08-03T12:03:35.279Z,3.97
2022-08-03T12:06:55.937Z,4.40
2022-08-03T12:10:08.524Z,4.60
2022-08-03T12:14:43.733Z,4.35
2022-08-03T12:16:33.131Z,4.00
2022-08-03T12:19:43.003Z,4.37
2022-08-03T12:23:01.531Z,4.35
2022-08-03T12:26:06.023Z,4.03
2022-08-03T12:29:08.423Z,3.97
2022-08-03T12:32:15.370Z,3.90
2022-08-03T12:35:24.609Z,4.00
2022-08-03T12:38:27.512Z,4.35
2022-08-03T12:41:35.665Z,3.83
2022-08-03T12:44:37.791Z,4.10
2022-08-03T12:47:57.316Z,4.28
2022-08-03T12:51:11.906Z,3.62
2022-08-03T12:54:25.247Z,4.25
2022-08-03T12:57:53.710Z,4.35
2022-08-03T13:00:56.284Z,4.15
2022-08-03T13:07:14.284Z,4.22
2022-08-03T13:10:31.423Z,4.37
2022-08-03T13:13:40.135Z,4.12
2022-08-03T13:16:42.242Z,4.28
2022-08-03T13:22:48.292Z,3.60
2022-08-03T13:25:55.339Z,4.20
2022-08-03T13:28:58.142Z,4.03
2022-08-03T13:32:01.743Z,4.20
2022-08-03T13:35:04.564Z,3.87
2022-08-03T13:38:07.043Z,3.83
2022-08-03T13:41:09.230Z,4.47
2022-08-03T13:44:29.234Z,4.50
2022-08-03T13:47:32.069Z,3.92
2022-08-03T13:50:34.497Z,3.92
2022-08-03T13:53:36.627Z,3.53
2022-08-03T13:56:39.110Z,3.95
2022-08-03T13:59:41.277Z,3.75
2022-08-03T14:02:43.788Z,3.90
2022-08-03T14:05:47.413Z,3.85
2022-08-03T14:08:50.318Z,4.05
2022-08-03T14:12:07.665Z,4.30
2022-08-03T14:15:13.003Z,3.70
2022-08-03T14:18:27.658Z,4.30
2022-08-03T14:21:35.654Z,3.92
2022-08-03T14:24:38.090Z,3.55
2022-08-03T14:27:40.288Z,4.00
2022-08-03T14:30:42.822Z,3.97
2022-08-03T14:33:45.055Z,4.37
2022-08-03T14:36:47.450Z,4.37
2022-08-03T14:40:05.231Z,5.47
2022-08-03T14:43:07.728Z,5.10
2022-08-03T14:46:09.972Z,3.70
2022-08-03T14:50:37.851Z,3.87
2022-08-03T14:52:34.519Z,3.70
2022-08-03T14:55:38.961Z,4.35
2022-08-03T14:58:53.191Z,4.65
2022-08-03T15:02:04.360Z,4.25
2022-08-03T15:05:10.705Z,4.10
2022-08-03T15:08:13.124Z,3.87
2022-08-03T15:11:15.321Z,4.30
2022-08-03T15:14:17.724Z,4.15
2022-08-03T15:17:24.480Z,4.32
2022-08-03T15:20:42.453Z,4.18
2022-08-03T15:23:46.308Z,4.18
2022-08-03T15:26:48.690Z,3.92
2022-08-03T15:30:07.256Z,3.67
2022-08-03T15:33:14.283Z,4.32
2022-08-03T15:36:19.847Z,3.92
2022-08-03T15:39:22.328Z,4.53
2022-08-03T15:42:24.525Z,3.35
2022-08-03T15:45:28.213Z,3.83
2022-08-03T15:48:37.762Z,4.07
2022-08-03T15:51:40.393Z,3.65
2022-08-03T15:54:42.856Z,3.62
2022-08-03T15:59:04.906Z,3.70
2022-08-03T16:01:08.035Z,3.85
2022-08-03T16:04:10.453Z,4.45
2022-08-03T16:07:15.591Z,3.47
2022-08-03T16:10:19.550Z,3.67
2022-08-03T16:13:22.399Z,4.05
2022-08-03T16:19:48.703Z,4.12
2022-08-03T16:22:52.092Z,4.05
2022-08-03T16:28:56.703Z,3.80
2022-08-03T16:31:58.912Z,3.22
2022-08-03T16:35:01.786Z,3.20
2022-08-03T16:38:09.592Z,3.65
2022-08-03T16:41:12.866Z,3.53
2022-08-03T16:44:15.063Z,3.90
2022-08-03T16:47:22.110Z,4.05
2022-08-03T16:50:24.711Z,3.50
2022-08-03T16:53:51.608Z,4.12
2022-08-03T16:56:49.313Z,3.78
2022-08-03T17:02:55.823Z,4.15
2022-08-03T17:05:59.609Z,3.83
2022-08-03T17:09:12.728Z,3.15
2022-08-03T17:12:16.003Z,3.90
2022-08-03T17:15:18.164Z,3.78
2022-08-03T17:18:24.019Z,3.78
2022-08-03T17:21:29.893Z,4.05
2022-08-03T17:24:41.028Z,3.78
2022-08-03T17:28:51.423Z,3.35
2022-08-03T17:31:23.255Z,3.37
2022-08-03T17:34:34.316Z,3.53
2022-08-03T17:41:00.091Z,3.22
2022-08-03T17:47:29.323Z,3.67
2022-08-03T17:50:51.907Z,3.22
2022-08-03T17:54:29.824Z,4.32
2022-08-03T17:58:02.709Z,3.50
2022-08-03T18:02:01.991Z,3.62
2022-08-03T18:05:17.113Z,3.95
2022-08-03T18:08:34.191Z,4.03
2022-08-03T18:11:41.828Z,3.75
2022-08-03T18:14:57.652Z,4.12
2022-08-03T18:18:10.759Z,3.25
2022-08-03T18:21:16.650Z,3.33
2022-08-03T18:24:20.661Z,4.28
2022-08-03T18:27:42.552Z,4.47
2022-08-03T18:30:54.411Z,4.07
2022-08-03T18:34:18.688Z,3.90
2022-08-03T18:37:26.217Z,4.68
2022-08-03T18:40:29.150Z,4.68
2022-08-03T18:43:47.673Z,4.35
2022-08-03T18:47:07.553Z,4.33
2022-08-03T18:50:34.167Z,4.68
2022-08-03T18:54:06.351Z,4.25
2022-08-03T18:57:17.282Z,5.05
2022-08-03T19:00:42.627Z,4.18
2022-08-03T19:03:50.269Z,4.45
2022-08-03T19:07:00.998Z,4.95
2022-08-03T19:10:09.438Z,4.80
2022-08-03T19:13:36.113Z,5.07
2022-08-03T19:16:41.947Z,4.47
2022-08-03T19:19:45.932Z,5.07
2022-08-03T19:25:52.271Z,4.35
2022-08-03T19:28:57.108Z,4.32
2022-08-03T19:32:01.465Z,6.03
2022-08-03T19:35:05.424Z,4.90
2022-08-03T19:38:17.324Z,4.40
2022-08-03T19:41:41.692Z,4.20
2022-08-03T19:44:50.699Z,4.37
2022-08-03T19:48:09.981Z,4.40
2022-08-03T19:51:12.753Z,4.68
2022-08-03T19:54:15.783Z,4.32
2022-08-03T19:57:19.938Z,3.78
2022-08-03T20:00:26.670Z,4.62
2022-08-03T20:06:47.030Z,4.20
2022-08-03T20:09:54.697Z,4.15
2022-08-03T20:12:59.882Z,4.30
2022-08-03T20:16:02.943Z,4.12
2022-08-03T20:19:14.312Z,4.37
2022-08-03T20:22:17.892Z,3.78
2022-08-03T20:28:31.922Z,3.45
2022-08-03T20:31:36.215Z,3.78
2022-08-03T20:34:39.114Z,3.85
2022-08-03T20:37:41.259Z,3.60
2022-08-03T20:40:44.356Z,3.15
2022-08-03T20:43:49.444Z,3.70
2022-08-03T20:47:00.422Z,3.55
2022-08-03T20:50:07.488Z,3.47
2022-08-03T20:53:12.113Z,3.00
2022-08-03T20:56:14.609Z,2.97
2022-08-03T20:59:18.874Z,3.40
2022-08-03T21:02:29.505Z,2.97
2022-08-03T21:05:47.894Z,2.50
2022-08-03T21:09:00.227Z,3.03
2022-08-03T21:12:07.868Z,2.65
2022-08-03T21:16:02.383Z,2.95
2022-08-03T21:18:50.033Z,3.00
2022-08-03T21:21:54.183Z,2.70
2022-08-03T21:24:57.548Z,2.80
2022-08-03T21:28:01.812Z,2.50
2022-08-03T21:31:04.444Z,2.87
2022-08-03T21:34:07.200Z,2.97
2022-08-03T21:37:09.591Z,3.28
2022-08-03T21:40:17.034Z,3.45
2022-08-03T21:43:19.642Z,3.35
2022-08-03T21:46:22.225Z,2.50
2022-08-03T21:50:07.203Z,3.00
2022-08-03T21:52:51.640Z,3.40
2022-08-03T21:56:01.701Z,2.70
2022-08-03T21:59:09.086Z,2.55
2022-08-03T22:02:22.715Z,2.85
2022-08-03T22:05:43.007Z,3.90
2022-08-03T22:08:48.151Z,2.70
2022-08-03T22:11:54.031Z,2.20
2022-08-03T22:15:01.162Z,2.90
2022-08-03T22:18:05.023Z,2.60
2022-08-03T22:21:09.765Z,2.58
2022-08-03T22:24:13.315Z,2.85
2022-08-03T22:27:32.230Z,3.03
2022-08-03T22:30:35.340Z,2.12
2022-08-03T22:33:38.343Z,2.60
2022-08-03T22:39:43.989Z,2.22
2022-08-03T22:42:49.448Z,2.35
2022-08-03T22:46:10.599Z,2.37
2022-08-03T22:49:15.871Z,3.03
2022-08-03T22:52:18.317Z,2.67
2022-08-03T22:55:24.883Z,2.85
2022-08-03T22:58:27.366Z,3.40
2022-08-03T23:01:37.112Z,2.77
2022-08-03T23:04:41.283Z,3.12
2022-08-03T23:07:44.726Z,3.58
2022-08-03T23:10:47.559Z,3.10
2022-08-03T23:13:54.006Z,4.05
2022-08-03T23:17:00.285Z,2.90
2022-08-03T23:20:06.610Z,3.53
2022-08-03T23:23:09.668Z,4.00
2022-08-03T23:26:15.757Z,3.70
2022-08-03T23:29:20.128Z,3.40
2022-08-03T23:32:25.749Z,3.58
2022-08-03T23:36:28.420Z,3.62
2022-08-03T23:39:09.679Z,3.78
2022-08-03T23:42:15.085Z,4.18
2022-08-03T23:45:19.586Z,3.70
2022-08-03T23:48:21.720Z,4.15
2022-08-03T23:51:50.167Z,3.50
2022-08-03T23:55:26.678Z,3.65
2022-08-03T23:59:00.080Z,3.55
